METAR Data
IDs: Format: Raw Decoded Include TAF

Data at: 2058 UTC 18 Sep 2018

KBYY 182055Z AUTO 00000KT 10SM CLR 33/23 A2991 RMK AO2 T03340237
KBYY 182035Z AUTO 19003KT 10SM CLR 33/23 A2991 RMK AO2 T03330240
KBYY 182015Z AUTO 00000KT 10SM CLR 33/23 A2992 RMK AO2 T03270239
KBYY 181955Z AUTO 00000KT 10SM CLR 32/23 A2993 RMK AO2 T03250238
KBYY 181935Z AUTO 00000KT 10SM SCT036 33/23 A2993 RMK AO2 T03300241
KBYY 181915Z AUTO 00000KT 10SM CLR 32/24 A2994 RMK AO2 T03260244
KBYY 181835Z AUTO 00000KT 10SM BKN034 BKN039 BKN045 31/24 A2996 RMK AO2 T03210244
KBYY 181815Z AUTO 26003KT 10SM BKN030 31/23 A2997 RMK AO2 T03200245
KBYY 181755Z AUTO 29004KT 10SM CLR 32/25 A2998 RMK AO2 T03160248
KBYY 181735Z AUTO 00000KT 10SM SCT048 31/24 A2999 RMK AO2 T03100246
KBYY 181715Z AUTO 00000KT 10SM SCT027 SCT038 30/24 A3000 RMK AO2 T03110250
KBYY 181655Z AUTO 29005KT 10SM SCT027 SCT039 31/25 A3001 RMK AO2 T03130248
KBYY 181635Z AUTO 00000KT 10SM SCT025 SCT033 SCT040 30/25 A3001 RMK AO2 T03040248
KBYY 181615Z AUTO 27003KT 10SM SCT025 BKN035 BKN041 30/24 A3001 RMK AO2 T03000245
KBYY 181555Z AUTO 25003KT 10SM SCT023 SCT028 BKN038 30/25 A3001 RMK AO2 T02990249
KBYY 181535Z AUTO 27003KT 10SM SCT017 SCT028 BKN037 30/25 A3001 RMK AO2 T02980251
KBYY 181515Z AUTO 00000KT 10SM SCT010 SCT017 29/25 A3001 RMK AO2 T02910253
KBYY 181455Z AUTO 26004KT 10SM SCT007 SCT012 SCT017 28/26 A3001 RMK AO2 T02790269
KBYY 181435Z AUTO 26003KT 10SM SCT005 27/27 A3000 RMK AO2 T02700270
KBYY 181415Z AUTO 00000KT 10SM CLR 26/26 A3000 RMK AO2 T02610261
KBYY 181355Z AUTO 00000KT 10SM CLR 26/26 A3000 RMK AO2 T02580258
KBYY 181335Z AUTO 00000KT 10SM CLR 25/25 A3000 RMK AO2 T02520252
KBYY 181315Z AUTO 00000KT 10SM CLR 25/25 A3000 RMK AO2 T02450245
KBYY 181255Z AUTO 00000KT 7SM CLR 24/24 A2999 RMK AO2 T02410241
KBYY 181235Z AUTO 00000KT 4SM BR CLR 23/23 A2999 RMK AO2 T02400240
KBYY 181215Z AUTO 00000KT 5SM BR CLR 23/23 A2999 RMK AO2 T02400240
KBYY 181155Z AUTO 00000KT 7SM CLR 23/23 A2998 RMK AO2 T02400240
KBYY 181135Z AUTO 00000KT 10SM CLR 23/23 A2998 RMK AO2 T02400240
KBYY 181115Z AUTO 00000KT 10SM CLR 23/23 A2997 RMK AO2 T02400240
KBYY 181055Z AUTO 00000KT 10SM CLR 24/24 A2997 RMK AO2 T02410241
KBYY 181035Z AUTO 00000KT 10SM CLR 23/23 A2997 RMK AO2 T02400240
KBYY 181015Z AUTO 00000KT 10SM CLR 23/23 A2996 RMK AO2 T02420242
KBYY 180955Z AUTO 00000KT 10SM CLR 24/24 A2996 RMK AO2 T02430243
KBYY 180935Z AUTO 00000KT 7SM CLR 23/23 A2996 RMK AO2 T02420242
KBYY 180915Z AUTO 00000KT 10SM CLR 24/24 A2996 RMK AO2 T02410241
KBYY 180855Z AUTO 00000KT 1 3/4SM BR VV007 23/23 A2996 RMK AO2 T02400240
KBYY 180835Z AUTO 00000KT 1 3/4SM BR VV007 23/23 A2996 RMK AO2 VIS 1 1/2V3 T02420241
KBYY 180815Z AUTO 00000KT 3SM BR CLR 24/24 A2996 RMK AO2 T02450243
KBYY 180755Z AUTO 00000KT 7SM CLR 24/24 A2996 RMK AO2 T02450244
KBYY 180735Z AUTO 00000KT 10SM CLR 24/24 A2996 RMK AO2 T02460245
KBYY 180715Z AUTO 00000KT 10SM CLR 24/24 A2997 RMK AO2 T02470245
KBYY 180655Z AUTO 00000KT 10SM CLR 25/24 A2997 RMK AO2 T02480245
KBYY 180635Z AUTO 00000KT 10SM CLR 25/24 A2997 RMK AO2 T02490244
KBYY 180615Z AUTO 00000KT 10SM CLR 25/24 A2997 RMK AO2 T02500243
KBYY 180555Z AUTO 00000KT 10SM CLR 25/24 A2997 RMK AO2 T02510244
KBYY 180535Z AUTO 00000KT 10SM CLR 25/24 A2998 RMK AO2 T02540243
KBYY 180515Z AUTO 00000KT 10SM CLR 26/24 A2998 RMK AO2 T02600245
KBYY 180455Z AUTO 00000KT 10SM CLR 26/24 A2998 RMK AO2 T02600245
KBYY 180435Z AUTO 00000KT 10SM CLR 26/24 A2998 RMK AO2 T02600245
KBYY 180415Z AUTO 00000KT 10SM CLR 26/24 A2998 RMK AO2 T02600245
KBYY 180355Z AUTO 00000KT 10SM CLR 26/24 A2998 RMK AO2 T02610244
KBYY 180335Z AUTO 22003KT 10SM CLR 26/24 A2998 RMK AO2 T02610245
KBYY 180315Z AUTO 21004KT 10SM CLR 26/24 A2997 RMK AO2 T02620245
KBYY 180255Z AUTO 20003KT 10SM CLR 26/24 A2996 RMK AO2 T02640246
KBYY 180235Z AUTO 20003KT 10SM CLR 26/24 A2996 RMK AO2 T02650245
KBYY 180215Z AUTO 21003KT 10SM CLR 26/24 A2995 RMK AO2 T02660247
KBYY 180155Z AUTO 20003KT 10SM CLR 26/25 A2994 RMK AO2 T02690249
KBYY 180135Z AUTO 19003KT 10SM CLR 27/25 A2993 RMK AO2 T02720250
KBYY 180115Z AUTO 20003KT 10SM CLR 27/25 A2993 RMK AO2 T02770249
KBYY 180055Z AUTO 19003KT 10SM CLR 27/25 A2992 RMK AO2 T02830247
KBYY 180035Z AUTO 18004KT 10SM CLR 28/24 A2992 RMK AO2 T02920246
KBYY 180015Z AUTO 17005KT 10SM SCT048 30/25 A2992 RMK AO2 T03030249
KBYY 172355Z AUTO 17008KT 10SM BKN048 31/25 A2991 RMK AO2 T03140251
KBYY 172335Z AUTO 21006KT 10SM BKN046 OVC050 31/25 A2991 RMK AO2 T03230241
KBYY 172315Z AUTO 19003KT 10SM SCT048 SCT055 32/22 A2991 RMK AO2 T03300221
KBYY 172255Z AUTO 00000KT 10SM SCT050 33/21 A2991 RMK AO2 T03290219
KBYY 172235Z AUTO 00000KT 10SM SCT050 32/21 A2991 RMK AO2 T03310219
KBYY 172215Z AUTO 00000KT 10SM CLR 33/21 A2991 RMK AO2 T03310216
KBYY 172155Z AUTO 00000KT 10SM CLR 32/21 A2991 RMK AO2 T03300221
KBYY 172135Z AUTO 00000KT 10SM CLR 32/22 A2992 RMK AO2 T03280224
KBYY 172115Z AUTO 30003KT 10SM CLR 32/22 A2993 RMK AO2 T03300225
KBYY 172055Z AUTO 00000KT 10SM CLR 32/21 A2993 RMK AO2 T03260221
KBYY 172035Z AUTO 00000KT 10SM CLR 32/22 A2993 RMK AO2 T03260223
KBYY 172015Z AUTO 27003KT 10SM CLR 32/22 A2994 RMK AO2 T03260224
KBYY 171955Z AUTO 21003KT 10SM CLR 32/22 A2995 RMK AO2 T03260225
KBYY 171935Z AUTO 00000KT 10SM CLR 32/22 A2995 RMK AO2 T03230225
KBYY 171915Z AUTO 00000KT 10SM SCT035 32/23 A2996 RMK AO2 T03200227
KBYY 171855Z AUTO 29003KT 10SM BKN035 32/22 A2997 RMK AO2 T03180231
KBYY 171835Z AUTO 00000KT 10SM SCT035 31/23 A2998 RMK AO2 T03160229
KBYY 171815Z AUTO 00000KT 10SM CLR 31/22 A2998 RMK AO2 T03110227
KBYY 171755Z AUTO 00000KT 10SM CLR 30/22 A2999 RMK AO2 T03090231
KBYY 171735Z AUTO 00000KT 10SM SCT030 31/23 A2999 RMK AO2 T03100237
KBYY 171715Z AUTO 24003KT 10SM CLR 30/23 A2999 RMK AO2 T03060235
KBYY 171655Z AUTO 00000KT 10SM CLR 30/23 A3000 RMK AO2 T03010235
KBYY 171635Z AUTO 00000KT 10SM CLR 30/23 A3000 RMK AO2 T02980243
KBYY 171615Z AUTO 00000KT 10SM SCT018 30/24 A3001 RMK AO2 T02940246
KBYY 171555Z AUTO 32003KT 10SM SCT013 29/25 A3001 RMK AO2 T02890252
KBYY 171535Z AUTO 30004KT 10SM SCT013 28/25 A3001 RMK AO2 T02830252
KBYY 171515Z AUTO 31003KT 10SM SCT013 28/25 A3001 RMK AO2 T02780252
KBYY 171455Z AUTO 32004KT 10SM CLR 27/25 A3000 RMK AO2 T02650254
KBYY 171435Z AUTO 00000KT 10SM CLR 26/25 A3000 RMK AO2 T02560255
KBYY 171415Z AUTO 00000KT 10SM CLR 25/25 A3000 RMK AO2 T02500250
KBYY 171355Z AUTO 00000KT 10SM CLR 24/24 A2999 RMK AO2 T02460246
KBYY 171335Z AUTO 00000KT 10SM CLR 24/24 A2999 RMK AO2 T02400240
KBYY 171315Z AUTO 00000KT 10SM CLR 23/23 A2998 RMK AO2 T02360236
KBYY 171255Z AUTO 00000KT 10SM CLR 23/23 A2998 RMK AO2 T02330233
KBYY 171235Z AUTO 00000KT 2 1/2SM BR CLR 23/23 A2997 RMK AO2 VIS 1V5 T02330233
KBYY 171215Z AUTO 00000KT 4SM BR CLR 23/23 A2996 RMK AO2 T02340234
KBYY 171155Z AUTO 00000KT 5SM BR CLR 23/23 A2996 RMK AO2 T02340234
KBYY 171135Z AUTO 00000KT 7SM CLR 23/23 A2995 RMK AO2 T02330233
KBYY 171115Z AUTO 00000KT 7SM CLR 23/23 A2995 RMK AO2 T02320232
KBYY 171055Z AUTO 00000KT 7SM -RA CLR 23/23 A2994 RMK AO2 T02320232
KBYY 171035Z AUTO 00000KT 7SM CLR 23/23 A2994 RMK AO2 T02350235
KBYY 171015Z AUTO 00000KT 5SM BR CLR 23/23 A2993 RMK AO2 T02350235
KBYY 170955Z AUTO 00000KT 7SM CLR 23/23 A2993 RMK AO2 T02350235
KBYY 170935Z AUTO 00000KT 7SM CLR 23/23 A2993 RMK AO2 T02350235
KBYY 170915Z AUTO 00000KT 7SM CLR 23/23 A2993 RMK AO2 T02390239